sensor_id;sensor_type;location;lat;lon;timestamp;temperature;humidity
318;DHT22;146;53.448;10.228;2024-02-21T00:02:21;9.80;1.00
318;DHT22;146;53.448;10.228;2024-02-21T00:05:08;9.80;1.00
318;DHT22;146;53.448;10.228;2024-02-21T00:07:55;9.80;1.00
318;DHT22;146;53.448;10.228;2024-02-21T00:10:42;9.80;1.00
318;DHT22;146;53.448;10.228;2024-02-21T00:13:30;9.80;1.00
318;DHT22;146;53.448;10.228;2024-02-21T00:16:17;9.90;1.00
318;DHT22;146;53.448;10.228;2024-02-21T00:19:05;9.80;1.00
318;DHT22;146;53.448;10.228;2024-02-21T00:21:52;9.80;1.00
318;DHT22;146;53.448;10.228;2024-02-21T00:24:40;9.70;1.00
318;DHT22;146;53.448;10.228;2024-02-21T00:27:30;9.70;1.00
318;DHT22;146;53.448;10.228;2024-02-21T00:30:18;9.60;1.00
318;DHT22;146;53.448;10.228;2024-02-21T00:33:05;9.70;1.00
318;DHT22;146;53.448;10.228;2024-02-21T00:35:53;9.60;1.00
318;DHT22;146;53.448;10.228;2024-02-21T00:38:40;9.60;1.00
318;DHT22;146;53.448;10.228;2024-02-21T00:41:27;9.60;1.00
318;DHT22;146;53.448;10.228;2024-02-21T00:44:14;9.60;1.00
318;DHT22;146;53.448;10.228;2024-02-21T00:47:01;9.70;1.00
318;DHT22;146;53.448;10.228;2024-02-21T00:49:49;9.70;1.00
318;DHT22;146;53.448;10.228;2024-02-21T00:52:37;9.70;1.00
318;DHT22;146;53.448;10.228;2024-02-21T00:55:24;9.60;1.00
318;DHT22;146;53.448;10.228;2024-02-21T00:58:11;9.60;1.00
318;DHT22;146;53.448;10.228;2024-02-21T01:00:59;9.60;1.00
318;DHT22;146;53.448;10.228;2024-02-21T01:03:47;9.70;1.00
318;DHT22;146;53.448;10.228;2024-02-21T01:06:34;9.60;1.00
318;DHT22;146;53.448;10.228;2024-02-21T01:09:22;9.50;1.00
318;DHT22;146;53.448;10.228;2024-02-21T01:12:09;9.60;1.00
318;DHT22;146;53.448;10.228;2024-02-21T01:14:56;9.60;1.00
318;DHT22;146;53.448;10.228;2024-02-21T01:17:44;9.60;1.00
318;DHT22;146;53.448;10.228;2024-02-21T01:20:31;9.60;1.00
318;DHT22;146;53.448;10.228;2024-02-21T01:23:18;9.60;1.00
318;DHT22;146;53.448;10.228;2024-02-21T01:26:06;9.60;1.00
318;DHT22;146;53.448;10.228;2024-02-21T01:28:54;9.60;1.00
318;DHT22;146;53.448;10.228;2024-02-21T01:31:41;9.60;1.00
318;DHT22;146;53.448;10.228;2024-02-21T01:34:28;9.60;1.00
318;DHT22;146;53.448;10.228;2024-02-21T01:37:15;9.60;1.00
318;DHT22;146;53.448;10.228;2024-02-21T01:40:02;9.60;1.00
318;DHT22;146;53.448;10.228;2024-02-21T01:42:51;9.70;1.00
318;DHT22;146;53.448;10.228;2024-02-21T01:45:40;9.70;1.00
318;DHT22;146;53.448;10.228;2024-02-21T01:48:28;9.60;1.00
318;DHT22;146;53.448;10.228;2024-02-21T01:51:15;9.60;1.00
318;DHT22;146;53.448;10.228;2024-02-21T01:54:02;9.60;1.00
318;DHT22;146;53.448;10.228;2024-02-21T01:56:50;9.60;1.00
318;DHT22;146;53.448;10.228;2024-02-21T01:59:39;9.50;1.00
318;DHT22;146;53.448;10.228;2024-02-21T02:02:27;9.50;1.00
318;DHT22;146;53.448;10.228;2024-02-21T02:05:15;9.50;1.00
318;DHT22;146;53.448;10.228;2024-02-21T02:08:05;9.50;1.00
318;DHT22;146;53.448;10.228;2024-02-21T02:10:53;9.40;1.00
318;DHT22;146;53.448;10.228;2024-02-21T02:13:40;9.40;1.00
318;DHT22;146;53.448;10.228;2024-02-21T02:16:28;9.40;1.00
318;DHT22;146;53.448;10.228;2024-02-21T02:19:15;9.40;1.00
318;DHT22;146;53.448;10.228;2024-02-21T02:22:09;9.40;1.00
318;DHT22;146;53.448;10.228;2024-02-21T02:24:58;9.40;1.00
318;DHT22;146;53.448;10.228;2024-02-21T02:27:45;9.40;1.00
318;DHT22;146;53.448;10.228;2024-02-21T02:30:33;9.40;1.00
318;DHT22;146;53.448;10.228;2024-02-21T02:33:21;9.40;1.00
318;DHT22;146;53.448;10.228;2024-02-21T02:36:08;9.30;1.00
318;DHT22;146;53.448;10.228;2024-02-21T02:38:56;9.40;1.00
318;DHT22;146;53.448;10.228;2024-02-21T02:41:44;9.40;1.00
318;DHT22;146;53.448;10.228;2024-02-21T02:44:31;9.40;1.00
318;DHT22;146;53.448;10.228;2024-02-21T02:47:18;9.50;1.00
318;DHT22;146;53.448;10.228;2024-02-21T02:50:06;9.50;1.00
318;DHT22;146;53.448;10.228;2024-02-21T02:52:53;9.50;1.00
318;DHT22;146;53.448;10.228;2024-02-21T02:55:41;9.60;1.00
318;DHT22;146;53.448;10.228;2024-02-21T02:58:29;9.50;1.00
318;DHT22;146;53.448;10.228;2024-02-21T03:01:17;9.60;1.00
318;DHT22;146;53.448;10.228;2024-02-21T03:04:04;9.60;1.00
318;DHT22;146;53.448;10.228;2024-02-21T03:06:54;9.60;1.00
318;DHT22;146;53.448;10.228;2024-02-21T03:09:41;9.60;1.00
318;DHT22;146;53.448;10.228;2024-02-21T03:12:28;9.60;1.00
318;DHT22;146;53.448;10.228;2024-02-21T03:15:17;9.60;1.00
318;DHT22;146;53.448;10.228;2024-02-21T03:18:04;9.60;1.00
318;DHT22;146;53.448;10.228;2024-02-21T03:20:51;9.60;1.00
318;DHT22;146;53.448;10.228;2024-02-21T03:23:38;9.60;1.00
318;DHT22;146;53.448;10.228;2024-02-21T03:26:26;9.60;1.00
318;DHT22;146;53.448;10.228;2024-02-21T03:29:14;9.50;1.00
318;DHT22;146;53.448;10.228;2024-02-21T03:32:02;9.50;1.00
318;DHT22;146;53.448;10.228;2024-02-21T03:34:49;9.50;1.00
318;DHT22;146;53.448;10.228;2024-02-21T03:37:37;9.50;1.00
318;DHT22;146;53.448;10.228;2024-02-21T03:40:25;9.50;1.00
318;DHT22;146;53.448;10.228;2024-02-21T03:43:12;9.50;1.00
318;DHT22;146;53.448;10.228;2024-02-21T03:45:59;9.50;1.00
318;DHT22;146;53.448;10.228;2024-02-21T03:48:48;9.50;1.00
318;DHT22;146;53.448;10.228;2024-02-21T03:51:35;9.50;1.00
318;DHT22;146;53.448;10.228;2024-02-21T03:54:22;9.60;1.00
318;DHT22;146;53.448;10.228;2024-02-21T03:57:28;9.50;1.00
318;DHT22;146;53.448;10.228;2024-02-21T04:00:16;9.60;1.00
318;DHT22;146;53.448;10.228;2024-02-21T04:03:03;9.50;1.00
318;DHT22;146;53.448;10.228;2024-02-21T04:05:53;9.50;1.00
318;DHT22;146;53.448;10.228;2024-02-21T04:08:41;9.60;1.00
318;DHT22;146;53.448;10.228;2024-02-21T04:11:28;9.60;1.00
318;DHT22;146;53.448;10.228;2024-02-21T04:14:15;9.60;1.00
318;DHT22;146;53.448;10.228;2024-02-21T04:17:02;9.60;1.00
318;DHT22;146;53.448;10.228;2024-02-21T04:19:53;9.50;1.00
318;DHT22;146;53.448;10.228;2024-02-21T04:22:49;9.50;1.00
318;DHT22;146;53.448;10.228;2024-02-21T04:25:36;9.40;1.00
318;DHT22;146;53.448;10.228;2024-02-21T04:28:23;9.50;1.00
318;DHT22;146;53.448;10.228;2024-02-21T04:31:10;9.50;1.00
318;DHT22;146;53.448;10.228;2024-02-21T04:33:57;9.50;1.00
318;DHT22;146;53.448;10.228;2024-02-21T04:36:45;9.40;1.00
318;DHT22;146;53.448;10.228;2024-02-21T04:39:33;9.40;1.00
318;DHT22;146;53.448;10.228;2024-02-21T04:42:20;9.30;1.00
318;DHT22;146;53.448;10.228;2024-02-21T04:45:08;9.30;1.00
318;DHT22;146;53.448;10.228;2024-02-21T04:47:55;9.40;1.00
318;DHT22;146;53.448;10.228;2024-02-21T04:50:43;9.40;1.00
318;DHT22;146;53.448;10.228;2024-02-21T04:53:30;9.40;1.00
318;DHT22;146;53.448;10.228;2024-02-21T04:56:18;9.30;1.00
318;DHT22;146;53.448;10.228;2024-02-21T04:59:05;9.20;1.00
318;DHT22;146;53.448;10.228;2024-02-21T05:01:52;9.30;1.00
318;DHT22;146;53.448;10.228;2024-02-21T05:04:39;9.20;1.00
318;DHT22;146;53.448;10.228;2024-02-21T05:07:27;9.20;1.00
318;DHT22;146;53.448;10.228;2024-02-21T05:10:14;9.20;1.00
318;DHT22;146;53.448;10.228;2024-02-21T05:13:04;9.20;1.00
318;DHT22;146;53.448;10.228;2024-02-21T05:15:52;9.10;1.00
318;DHT22;146;53.448;10.228;2024-02-21T05:18:40;9.00;1.00
318;DHT22;146;53.448;10.228;2024-02-21T05:21:28;9.10;1.00
318;DHT22;146;53.448;10.228;2024-02-21T05:24:15;9.10;1.00
318;DHT22;146;53.448;10.228;2024-02-21T05:27:02;9.10;1.00
318;DHT22;146;53.448;10.228;2024-02-21T05:29:51;9.10;1.00
318;DHT22;146;53.448;10.228;2024-02-21T05:32:38;9.10;1.00
318;DHT22;146;53.448;10.228;2024-02-21T05:35:26;9.00;1.00
318;DHT22;146;53.448;10.228;2024-02-21T05:38:14;9.00;1.00
318;DHT22;146;53.448;10.228;2024-02-21T05:41:01;9.00;1.00
318;DHT22;146;53.448;10.228;2024-02-21T05:43:48;9.00;1.00
318;DHT22;146;53.448;10.228;2024-02-21T05:46:36;9.00;1.00
318;DHT22;146;53.448;10.228;2024-02-21T05:49:23;8.90;1.00
318;DHT22;146;53.448;10.228;2024-02-21T05:52:11;8.90;1.00
318;DHT22;146;53.448;10.228;2024-02-21T05:54:58;8.90;1.00
318;DHT22;146;53.448;10.228;2024-02-21T05:57:45;8.80;1.00
318;DHT22;146;53.448;10.228;2024-02-21T06:00:32;8.90;1.00
318;DHT22;146;53.448;10.228;2024-02-21T06:03:20;8.90;1.00
318;DHT22;146;53.448;10.228;2024-02-21T06:06:07;8.90;1.00
318;DHT22;146;53.448;10.228;2024-02-21T06:08:55;8.90;1.00
318;DHT22;146;53.448;10.228;2024-02-21T06:11:42;8.90;1.00
318;DHT22;146;53.448;10.228;2024-02-21T06:14:29;8.90;1.00
318;DHT22;146;53.448;10.228;2024-02-21T06:17:16;8.90;1.00
318;DHT22;146;53.448;10.228;2024-02-21T06:20:05;8.90;1.00
318;DHT22;146;53.448;10.228;2024-02-21T06:22:53;8.90;1.00
318;DHT22;146;53.448;10.228;2024-02-21T06:25:40;8.90;1.00
318;DHT22;146;53.448;10.228;2024-02-21T06:28:27;8.90;1.00
318;DHT22;146;53.448;10.228;2024-02-21T06:31:15;8.90;1.00
318;DHT22;146;53.448;10.228;2024-02-21T06:34:03;8.90;1.00
318;DHT22;146;53.448;10.228;2024-02-21T06:36:52;8.90;1.00
318;DHT22;146;53.448;10.228;2024-02-21T06:39:39;9.00;1.00
318;DHT22;146;53.448;10.228;2024-02-21T06:42:28;9.00;1.00
318;DHT22;146;53.448;10.228;2024-02-21T06:48:58;9.00;1.00
318;DHT22;146;53.448;10.228;2024-02-21T06:51:48;8.90;1.00
318;DHT22;146;53.448;10.228;2024-02-21T06:54:36;8.90;1.00
318;DHT22;146;53.448;10.228;2024-02-21T06:57:26;8.90;1.00
318;DHT22;146;53.448;10.228;2024-02-21T07:00:14;8.90;1.00
318;DHT22;146;53.448;10.228;2024-02-21T07:05:37;9.00;1.00
318;DHT22;146;53.448;10.228;2024-02-21T07:08:24;9.10;1.00
318;DHT22;146;53.448;10.228;2024-02-21T07:11:15;9.00;1.00
318;DHT22;146;53.448;10.228;2024-02-21T07:17:53;8.90;1.00
318;DHT22;146;53.448;10.228;2024-02-21T07:20:40;8.90;1.00
318;DHT22;146;53.448;10.228;2024-02-21T07:23:28;8.90;1.00
318;DHT22;146;53.448;10.228;2024-02-21T07:26:15;8.90;1.00
318;DHT22;146;53.448;10.228;2024-02-21T07:29:02;9.00;1.00
318;DHT22;146;53.448;10.228;2024-02-21T07:31:49;9.10;1.00
318;DHT22;146;53.448;10.228;2024-02-21T07:34:39;9.20;1.00
318;DHT22;146;53.448;10.228;2024-02-21T07:37:26;9.20;1.00
318;DHT22;146;53.448;10.228;2024-02-21T07:40:13;9.20;1.00
318;DHT22;146;53.448;10.228;2024-02-21T07:43:01;9.20;1.00
318;DHT22;146;53.448;10.228;2024-02-21T07:45:48;9.20;1.00
318;DHT22;146;53.448;10.228;2024-02-21T07:48:35;9.20;1.00
318;DHT22;146;53.448;10.228;2024-02-21T07:51:27;9.20;1.00
318;DHT22;146;53.448;10.228;2024-02-21T07:54:14;9.20;1.00
318;DHT22;146;53.448;10.228;2024-02-21T07:57:02;9.30;1.00
318;DHT22;146;53.448;10.228;2024-02-21T07:59:49;9.30;1.00
318;DHT22;146;53.448;10.228;2024-02-21T08:02:36;9.40;1.00
318;DHT22;146;53.448;10.228;2024-02-21T08:05:23;9.40;1.00
318;DHT22;146;53.448;10.228;2024-02-21T08:08:12;9.50;1.00
318;DHT22;146;53.448;10.228;2024-02-21T08:11:04;9.40;1.00
318;DHT22;146;53.448;10.228;2024-02-21T08:13:51;9.40;1.00
318;DHT22;146;53.448;10.228;2024-02-21T08:16:38;9.50;1.00
318;DHT22;146;53.448;10.228;2024-02-21T08:19:25;9.50;1.00
318;DHT22;146;53.448;10.228;2024-02-21T08:22:12;9.50;1.00
318;DHT22;146;53.448;10.228;2024-02-21T08:25:00;9.60;1.00
318;DHT22;146;53.448;10.228;2024-02-21T08:27:51;9.60;1.00
318;DHT22;146;53.448;10.228;2024-02-21T08:30:38;9.60;1.00
318;DHT22;146;53.448;10.228;2024-02-21T08:33:25;9.70;1.00
318;DHT22;146;53.448;10.228;2024-02-21T08:36:17;9.70;1.00
318;DHT22;146;53.448;10.228;2024-02-21T08:39:05;9.70;1.00
318;DHT22;146;53.448;10.228;2024-02-21T08:41:53;9.70;1.00
318;DHT22;146;53.448;10.228;2024-02-21T08:44:40;9.70;1.00
318;DHT22;146;53.448;10.228;2024-02-21T08:51:11;9.80;1.00
318;DHT22;146;53.448;10.228;2024-02-21T08:53:58;9.80;1.00
318;DHT22;146;53.448;10.228;2024-02-21T08:56:46;9.80;1.00
318;DHT22;146;53.448;10.228;2024-02-21T08:59:35;9.80;1.00
318;DHT22;146;53.448;10.228;2024-02-21T09:02:22;9.80;1.00
318;DHT22;146;53.448;10.228;2024-02-21T09:05:09;9.80;1.00
318;DHT22;146;53.448;10.228;2024-02-21T09:07:56;9.80;1.00
318;DHT22;146;53.448;10.228;2024-02-21T09:10:46;9.80;1.00
318;DHT22;146;53.448;10.228;2024-02-21T09:13:36;9.70;1.00
318;DHT22;146;53.448;10.228;2024-02-21T09:16:25;9.70;1.00
318;DHT22;146;53.448;10.228;2024-02-21T09:19:12;9.70;1.00
318;DHT22;146;53.448;10.228;2024-02-21T09:21:59;9.70;1.00
318;DHT22;146;53.448;10.228;2024-02-21T09:24:46;9.60;1.00
318;DHT22;146;53.448;10.228;2024-02-21T09:27:34;9.50;1.00
318;DHT22;146;53.448;10.228;2024-02-21T09:30:21;9.50;1.00
318;DHT22;146;53.448;10.228;2024-02-21T09:33:09;9.50;1.00
318;DHT22;146;53.448;10.228;2024-02-21T09:35:56;9.50;1.00
318;DHT22;146;53.448;10.228;2024-02-21T09:38:44;9.50;1.00
318;DHT22;146;53.448;10.228;2024-02-21T09:41:31;9.50;1.00
318;DHT22;146;53.448;10.228;2024-02-21T09:44:21;9.60;1.00
318;DHT22;146;53.448;10.228;2024-02-21T09:47:11;9.60;1.00
318;DHT22;146;53.448;10.228;2024-02-21T09:50:01;9.70;1.00
318;DHT22;146;53.448;10.228;2024-02-21T09:52:51;9.70;1.00
318;DHT22;146;53.448;10.228;2024-02-21T09:55:39;9.70;1.00
318;DHT22;146;53.448;10.228;2024-02-21T09:58:27;9.70;1.00
318;DHT22;146;53.448;10.228;2024-02-21T10:01:14;9.80;1.00
318;DHT22;146;53.448;10.228;2024-02-21T10:04:02;9.80;1.00
318;DHT22;146;53.448;10.228;2024-02-21T10:06:53;9.90;1.00
318;DHT22;146;53.448;10.228;2024-02-21T10:09:40;9.90;1.00
318;DHT22;146;53.448;10.228;2024-02-21T10:12:28;9.90;1.00
318;DHT22;146;53.448;10.228;2024-02-21T10:15:19;9.90;1.00
318;DHT22;146;53.448;10.228;2024-02-21T10:18:07;9.90;1.00
318;DHT22;146;53.448;10.228;2024-02-21T10:21:00;9.90;1.00
318;DHT22;146;53.448;10.228;2024-02-21T10:23:49;9.90;1.00
318;DHT22;146;53.448;10.228;2024-02-21T10:26:37;9.90;1.00
318;DHT22;146;53.448;10.228;2024-02-21T10:29:24;9.80;1.00
318;DHT22;146;53.448;10.228;2024-02-21T10:32:12;9.80;1.00
318;DHT22;146;53.448;10.228;2024-02-21T10:35:04;9.90;1.00
318;DHT22;146;53.448;10.228;2024-02-21T10:37:51;9.90;1.00
318;DHT22;146;53.448;10.228;2024-02-21T10:40:42;9.80;1.00
318;DHT22;146;53.448;10.228;2024-02-21T10:43:37;9.80;1.00
318;DHT22;146;53.448;10.228;2024-02-21T10:46:24;9.90;1.00
318;DHT22;146;53.448;10.228;2024-02-21T10:49:16;9.90;1.00
318;DHT22;146;53.448;10.228;2024-02-21T10:52:12;9.90;1.00
318;DHT22;146;53.448;10.228;2024-02-21T10:55:04;9.90;1.00
318;DHT22;146;53.448;10.228;2024-02-21T10:57:53;10.00;1.00
318;DHT22;146;53.448;10.228;2024-02-21T11:00:40;10.10;1.00
318;DHT22;146;53.448;10.228;2024-02-21T11:03:28;10.20;1.00
318;DHT22;146;53.448;10.228;2024-02-21T11:06:17;10.20;1.00
318;DHT22;146;53.448;10.228;2024-02-21T11:09:07;10.30;1.00
318;DHT22;146;53.448;10.228;2024-02-21T11:11:56;10.40;1.00
318;DHT22;146;53.448;10.228;2024-02-21T11:14:46;10.40;1.00
318;DHT22;146;53.448;10.228;2024-02-21T11:17:33;10.50;1.00
318;DHT22;146;53.448;10.228;2024-02-21T11:20:21;10.50;1.00
318;DHT22;146;53.448;10.228;2024-02-21T11:23:25;10.40;1.00
318;DHT22;146;53.448;10.228;2024-02-21T11:26:19;10.50;1.00
318;DHT22;146;53.448;10.228;2024-02-21T11:29:06;10.50;1.00
318;DHT22;146;53.448;10.228;2024-02-21T11:31:56;10.50;1.00
318;DHT22;146;53.448;10.228;2024-02-21T11:34:54;10.60;1.00
318;DHT22;146;53.448;10.228;2024-02-21T11:37:41;10.60;1.00
318;DHT22;146;53.448;10.228;2024-02-21T11:40:31;10.60;1.00
318;DHT22;146;53.448;10.228;2024-02-21T11:43:20;10.40;1.00
318;DHT22;146;53.448;10.228;2024-02-21T11:46:07;10.40;1.00
318;DHT22;146;53.448;10.228;2024-02-21T11:48:56;10.40;1.00
318;DHT22;146;53.448;10.228;2024-02-21T11:51:46;10.40;1.00
318;DHT22;146;53.448;10.228;2024-02-21T11:54:34;10.40;1.00
318;DHT22;146;53.448;10.228;2024-02-21T11:57:21;10.40;1.00
318;DHT22;146;53.448;10.228;2024-02-21T12:00:13;10.30;1.00
318;DHT22;146;53.448;10.228;2024-02-21T12:03:01;10.30;1.00
318;DHT22;146;53.448;10.228;2024-02-21T12:05:50;10.20;1.00
318;DHT22;146;53.448;10.228;2024-02-21T12:08:43;10.20;1.00
318;DHT22;146;53.448;10.228;2024-02-21T12:11:30;10.20;1.00
318;DHT22;146;53.448;10.228;2024-02-21T12:14:18;10.30;1.00
318;DHT22;146;53.448;10.228;2024-02-21T12:17:05;10.20;1.00
318;DHT22;146;53.448;10.228;2024-02-21T12:19:52;10.20;1.00
318;DHT22;146;53.448;10.228;2024-02-21T12:22:41;10.20;1.00
318;DHT22;146;53.448;10.228;2024-02-21T12:29:11;10.30;1.00
318;DHT22;146;53.448;10.228;2024-02-21T12:31:58;10.30;1.00
318;DHT22;146;53.448;10.228;2024-02-21T12:34:45;10.40;1.00
318;DHT22;146;53.448;10.228;2024-02-21T12:37:33;10.40;1.00
318;DHT22;146;53.448;10.228;2024-02-21T12:40:21;10.40;1.00
318;DHT22;146;53.448;10.228;2024-02-21T12:43:08;10.50;1.00
318;DHT22;146;53.448;10.228;2024-02-21T12:45:56;10.50;1.00
318;DHT22;146;53.448;10.228;2024-02-21T12:48:43;10.60;1.00
318;DHT22;146;53.448;10.228;2024-02-21T12:51:30;10.60;1.00
318;DHT22;146;53.448;10.228;2024-02-21T12:54:17;10.60;1.00
318;DHT22;146;53.448;10.228;2024-02-21T12:57:05;10.60;1.00
318;DHT22;146;53.448;10.228;2024-02-21T12:59:53;10.60;1.00
318;DHT22;146;53.448;10.228;2024-02-21T13:02:40;10.60;1.00
318;DHT22;146;53.448;10.228;2024-02-21T13:05:27;10.60;1.00
318;DHT22;146;53.448;10.228;2024-02-21T13:08:14;10.70;1.00
318;DHT22;146;53.448;10.228;2024-02-21T13:11:01;10.80;1.00
318;DHT22;146;53.448;10.228;2024-02-21T13:13:50;10.90;1.00
318;DHT22;146;53.448;10.228;2024-02-21T13:16:37;11.00;1.00
318;DHT22;146;53.448;10.228;2024-02-21T13:19:26;11.10;1.00
318;DHT22;146;53.448;10.228;2024-02-21T13:22:13;11.20;1.00
318;DHT22;146;53.448;10.228;2024-02-21T13:25:00;11.30;1.00
318;DHT22;146;53.448;10.228;2024-02-21T13:27:47;11.30;1.00
318;DHT22;146;53.448;10.228;2024-02-21T13:30:36;11.40;1.00
318;DHT22;146;53.448;10.228;2024-02-21T13:33:23;11.40;1.00
318;DHT22;146;53.448;10.228;2024-02-21T13:36:10;11.30;1.00
318;DHT22;146;53.448;10.228;2024-02-21T13:38:59;11.30;1.00
318;DHT22;146;53.448;10.228;2024-02-21T13:41:47;11.30;1.00
318;DHT22;146;53.448;10.228;2024-02-21T13:44:35;11.30;1.00
318;DHT22;146;53.448;10.228;2024-02-21T13:47:24;11.30;1.00
318;DHT22;146;53.448;10.228;2024-02-21T13:50:11;11.30;1.00
318;DHT22;146;53.448;10.228;2024-02-21T13:53:00;11.30;1.00
318;DHT22;146;53.448;10.228;2024-02-21T13:55:47;11.40;1.00
318;DHT22;146;53.448;10.228;2024-02-21T13:58:34;11.40;1.00
318;DHT22;146;53.448;10.228;2024-02-21T14:01:21;11.40;1.00
318;DHT22;146;53.448;10.228;2024-02-21T14:04:10;11.40;1.00
318;DHT22;146;53.448;10.228;2024-02-21T14:07:07;11.40;1.00
318;DHT22;146;53.448;10.228;2024-02-21T14:09:54;11.40;1.00
318;DHT22;146;53.448;10.228;2024-02-21T14:12:41;11.40;1.00
318;DHT22;146;53.448;10.228;2024-02-21T14:15:29;11.40;1.00
318;DHT22;146;53.448;10.228;2024-02-21T14:18:16;11.40;1.00
318;DHT22;146;53.448;10.228;2024-02-21T14:21:04;11.40;1.00
318;DHT22;146;53.448;10.228;2024-02-21T14:23:52;11.40;1.00
318;DHT22;146;53.448;10.228;2024-02-21T14:26:39;11.40;1.00
318;DHT22;146;53.448;10.228;2024-02-21T14:29:27;11.40;1.00
318;DHT22;146;53.448;10.228;2024-02-21T14:32:14;11.40;1.00
318;DHT22;146;53.448;10.228;2024-02-21T14:35:02;11.40;1.00
318;DHT22;146;53.448;10.228;2024-02-21T14:37:51;11.50;1.00
318;DHT22;146;53.448;10.228;2024-02-21T14:40:38;11.40;1.00
318;DHT22;146;53.448;10.228;2024-02-21T14:43:25;11.50;1.00
318;DHT22;146;53.448;10.228;2024-02-21T14:46:14;11.50;1.00
318;DHT22;146;53.448;10.228;2024-02-21T14:49:01;11.50;1.00
318;DHT22;146;53.448;10.228;2024-02-21T14:51:48;11.50;1.00
318;DHT22;146;53.448;10.228;2024-02-21T14:54:37;11.50;1.00
318;DHT22;146;53.448;10.228;2024-02-21T14:57:25;11.50;1.00
318;DHT22;146;53.448;10.228;2024-02-21T15:00:13;11.50;1.00
318;DHT22;146;53.448;10.228;2024-02-21T15:03:00;11.50;1.00
318;DHT22;146;53.448;10.228;2024-02-21T15:05:48;11.40;1.00
318;DHT22;146;53.448;10.228;2024-02-21T15:08:35;11.40;1.00
318;DHT22;146;53.448;10.228;2024-02-21T15:11:24;11.30;1.00
318;DHT22;146;53.448;10.228;2024-02-21T15:14:11;11.30;1.00
318;DHT22;146;53.448;10.228;2024-02-21T15:16:58;11.30;1.00
318;DHT22;146;53.448;10.228;2024-02-21T15:19:45;11.30;1.00
318;DHT22;146;53.448;10.228;2024-02-21T15:22:33;11.20;1.00
318;DHT22;146;53.448;10.228;2024-02-21T15:25:23;11.10;1.00
318;DHT22;146;53.448;10.228;2024-02-21T15:28:12;11.00;1.00
318;DHT22;146;53.448;10.228;2024-02-21T15:31:00;11.00;1.00
318;DHT22;146;53.448;10.228;2024-02-21T15:33:47;11.00;1.00
318;DHT22;146;53.448;10.228;2024-02-21T15:36:34;10.90;1.00
318;DHT22;146;53.448;10.228;2024-02-21T15:39:22;10.90;1.00
318;DHT22;146;53.448;10.228;2024-02-21T15:42:12;10.90;1.00
318;DHT22;146;53.448;10.228;2024-02-21T15:45:01;10.80;1.00
318;DHT22;146;53.448;10.228;2024-02-21T15:47:50;10.80;1.00
318;DHT22;146;53.448;10.228;2024-02-21T15:50:40;10.70;1.00
318;DHT22;146;53.448;10.228;2024-02-21T16:09:47;10.60;1.00
318;DHT22;146;53.448;10.228;2024-02-21T16:12:34;10.60;1.00
318;DHT22;146;53.448;10.228;2024-02-21T16:15:23;10.50;1.00
318;DHT22;146;53.448;10.228;2024-02-21T16:18:11;10.40;1.00
318;DHT22;146;53.448;10.228;2024-02-21T16:20:58;10.40;1.00
318;DHT22;146;53.448;10.228;2024-02-21T16:23:45;10.30;1.00
318;DHT22;146;53.448;10.228;2024-02-21T16:26:35;10.20;1.00
318;DHT22;146;53.448;10.228;2024-02-21T16:29:22;10.20;1.00
318;DHT22;146;53.448;10.228;2024-02-21T16:32:10;10.20;1.00
318;DHT22;146;53.448;10.228;2024-02-21T16:34:57;10.10;1.00
318;DHT22;146;53.448;10.228;2024-02-21T16:37:44;10.10;1.00
318;DHT22;146;53.448;10.228;2024-02-21T16:40:31;10.10;1.00
318;DHT22;146;53.448;10.228;2024-02-21T16:43:20;10.10;1.00
318;DHT22;146;53.448;10.228;2024-02-21T16:46:07;10.10;1.00
318;DHT22;146;53.448;10.228;2024-02-21T16:48:55;10.10;1.00
318;DHT22;146;53.448;10.228;2024-02-21T16:51:42;10.10;1.00
318;DHT22;146;53.448;10.228;2024-02-21T16:54:29;10.00;1.00
318;DHT22;146;53.448;10.228;2024-02-21T16:57:16;10.10;1.00
318;DHT22;146;53.448;10.228;2024-02-21T17:00:07;10.10;1.00
318;DHT22;146;53.448;10.228;2024-02-21T17:02:57;10.10;1.00
318;DHT22;146;53.448;10.228;2024-02-21T17:05:45;10.10;1.00
318;DHT22;146;53.448;10.228;2024-02-21T17:08:33;10.10;1.00
318;DHT22;146;53.448;10.228;2024-02-21T17:11:20;10.10;1.00
318;DHT22;146;53.448;10.228;2024-02-21T17:14:07;10.10;1.00
318;DHT22;146;53.448;10.228;2024-02-21T17:16:56;10.10;1.00
318;DHT22;146;53.448;10.228;2024-02-21T17:19:43;10.10;1.00
318;DHT22;146;53.448;10.228;2024-02-21T17:22:30;10.10;1.00
318;DHT22;146;53.448;10.228;2024-02-21T17:25:17;10.20;1.00
318;DHT22;146;53.448;10.228;2024-02-21T17:28:05;10.00;1.00
318;DHT22;146;53.448;10.228;2024-02-21T17:30:52;9.90;1.00
318;DHT22;146;53.448;10.228;2024-02-21T17:33:41;9.80;1.00
318;DHT22;146;53.448;10.228;2024-02-21T17:36:28;9.80;1.00
318;DHT22;146;53.448;10.228;2024-02-21T17:39:15;9.80;1.00
318;DHT22;146;53.448;10.228;2024-02-21T17:42:04;9.80;1.00
318;DHT22;146;53.448;10.228;2024-02-21T17:44:51;9.80;1.00
318;DHT22;146;53.448;10.228;2024-02-21T17:47:39;9.80;1.00
318;DHT22;146;53.448;10.228;2024-02-21T17:50:27;9.70;1.00
318;DHT22;146;53.448;10.228;2024-02-21T17:53:14;9.60;1.00
318;DHT22;146;53.448;10.228;2024-02-21T17:56:03;9.50;1.00
318;DHT22;146;53.448;10.228;2024-02-21T17:58:50;9.50;1.00
318;DHT22;146;53.448;10.228;2024-02-21T18:01:37;9.50;1.00
318;DHT22;146;53.448;10.228;2024-02-21T18:04:24;9.40;1.00
318;DHT22;146;53.448;10.228;2024-02-21T18:07:13;9.30;1.00
318;DHT22;146;53.448;10.228;2024-02-21T18:10:00;9.30;1.00
318;DHT22;146;53.448;10.228;2024-02-21T18:12:49;9.20;1.00
318;DHT22;146;53.448;10.228;2024-02-21T18:15:36;9.20;1.00
318;DHT22;146;53.448;10.228;2024-02-21T18:18:23;9.20;1.00
318;DHT22;146;53.448;10.228;2024-02-21T18:21:10;9.20;1.00
318;DHT22;146;53.448;10.228;2024-02-21T18:23:58;9.20;1.00
318;DHT22;146;53.448;10.228;2024-02-21T18:26:45;9.20;1.00
318;DHT22;146;53.448;10.228;2024-02-21T18:29:34;9.30;1.00
318;DHT22;146;53.448;10.228;2024-02-21T18:32:23;9.30;1.00
318;DHT22;146;53.448;10.228;2024-02-21T18:35:10;9.20;1.00
318;DHT22;146;53.448;10.228;2024-02-21T18:38:00;9.30;1.00
318;DHT22;146;53.448;10.228;2024-02-21T18:40:51;9.30;1.00
318;DHT22;146;53.448;10.228;2024-02-21T18:43:38;9.20;1.00
318;DHT22;146;53.448;10.228;2024-02-21T18:46:25;9.30;1.00
318;DHT22;146;53.448;10.228;2024-02-21T18:49:13;9.30;1.00
318;DHT22;146;53.448;10.228;2024-02-21T18:52:00;9.30;1.00
318;DHT22;146;53.448;10.228;2024-02-21T18:54:50;9.40;1.00
318;DHT22;146;53.448;10.228;2024-02-21T18:57:38;9.30;1.00
318;DHT22;146;53.448;10.228;2024-02-21T19:00:25;9.40;1.00
318;DHT22;146;53.448;10.228;2024-02-21T19:03:12;9.30;1.00
318;DHT22;146;53.448;10.228;2024-02-21T19:06:02;9.30;1.00
318;DHT22;146;53.448;10.228;2024-02-21T19:20:12;9.30;1.00
318;DHT22;146;53.448;10.228;2024-02-21T19:23:02;9.20;1.00
318;DHT22;146;53.448;10.228;2024-02-21T19:25:49;9.20;1.00
318;DHT22;146;53.448;10.228;2024-02-21T19:29:04;9.30;1.00
318;DHT22;146;53.448;10.228;2024-02-21T19:31:53;9.30;1.00
318;DHT22;146;53.448;10.228;2024-02-21T19:34:40;9.40;1.00
318;DHT22;146;53.448;10.228;2024-02-21T19:37:28;9.40;1.00
318;DHT22;146;53.448;10.228;2024-02-21T19:40:16;9.40;1.00
318;DHT22;146;53.448;10.228;2024-02-21T19:43:04;9.40;1.00
318;DHT22;146;53.448;10.228;2024-02-21T19:45:51;9.40;1.00
318;DHT22;146;53.448;10.228;2024-02-21T19:48:38;9.40;1.00
318;DHT22;146;53.448;10.228;2024-02-21T19:51:26;9.40;1.00
318;DHT22;146;53.448;10.228;2024-02-21T19:54:15;9.50;1.00